Latest Weather Observations for Noarlunga

IDS60801

Issued at 10:35 pm CDT Sunday 23 November 2014 (issued every 30 minutes, with the page automatically refreshed every 10 minutes)

About weather observations | Map of weather stations | Latest weather observations for SA | Other Formats
Station Details ID: 023885 Name: NOARLUNGA Lat: -35.16 Lon: 138.51 Height: 55.0 m
Data from the previous 72 hours. | See also: Recent months at Noarlunga
Date/Time
CDT
Temp
°C
App
Temp
°C
Dew
Point
Rel
Hum
%
Delta-T
°C
Wind Press
QNH
hPa
Press
MSL
hPa
Rain
since 9 am
mm
Dir
 
Spd
km/h
Gust
km/h
Spd
kts
Gust
kts
23/10:30pm 21.3 16.8 9.9 48 6.2 ESE 24 41 13 22 - - 0.0
23/10:00pm 21.1 17.7 10.6 51 5.7 SE 19 32 10 17 - - 0.0
23/09:30pm 21.4 19.4 11.4 53 5.6 SE 13 24 7 13 - - 0.0
23/09:00pm 22.0 20.2 12.0 53 5.6 SE 13 20 7 11 - - 0.0
23/08:30pm 23.2 22.1 11.9 49 6.4 S 9 15 5 8 - - 0.0
23/08:00pm 24.4 23.1 11.4 44 7.3 SSE 9 20 5 11 - - 0.0
23/07:30pm 26.0 23.4 10.6 38 8.6 SE 15 24 8 13 - - 0.0
23/07:00pm 26.8 24.2 6.2 27 10.8 SSE 9 13 5 7 - - 0.0
23/06:30pm 27.2 23.7 5.5 25 11.2 SSE 13 17 7 9 - - 0.0
23/06:00pm 28.0 25.7 5.6 24 11.7 S 7 11 4 6 - - 0.0
23/05:30pm 26.3 24.1 5.3 26 10.8 SE 6 7 3 4 - - 0.0
23/05:00pm 25.7 23.8 6.8 30 9.9 SSW 6 11 3 6 - - 0.0
23/04:30pm 25.1 23.0 5.8 29 9.9 W 6 9 3 5 - - 0.0
23/04:00pm 24.5 22.5 6.3 31 9.4 S 6 9 3 5 - - 0.0
23/03:30pm 22.7 21.1 8.8 41 7.4 W 7 13 4 7 - - 0.0
23/03:00pm 23.0 19.6 5.9 33 8.7 WNW 13 17 7 9 - - 0.0
23/02:30pm 24.2 20.6 6.9 33 9.0 WNW 15 20 8 11 - - 0.0
23/02:00pm 24.9 22.5 7.1 32 9.3 W 9 15 5 8 - - 0.0
23/01:30pm 24.0 21.8 8.0 36 8.5 SSW 9 17 5 9 - - 0.0
23/01:00pm 23.5 21.3 9.5 41 7.6 WSW 11 17 6 9 - - 0.0
23/12:30pm 22.8 20.7 9.6 43 7.2 WSW 11 17 6 9 - - 0.0
23/12:00pm 22.6 21.0 10.1 45 6.8 W 9 13 5 7 - - 0.0
23/11:30am 22.0 20.0 10.2 47 6.4 WSW 11 15 6 8 - - 0.0
23/11:00am 21.9 19.8 11.3 51 5.9 W 13 17 7 9 - - 0.0
23/10:30am 22.9 22.0 10.7 46 6.8 W 6 7 3 4 - - 0.0
23/10:00am 22.1 21.5 10.3 47 6.5 SSE 4 9 2 5 - - 0.0
23/09:30am 21.0 19.9 10.5 51 5.7 SE 7 13 4 7 - - 0.0
23/09:00am 20.2 19.6 10.3 53 5.4 ESE 4 7 2 4 - - 1.0
23/08:30am 18.3 18.2 10.9 62 4.0 N 2 6 1 3 - - 1.0
23/08:00am 17.2 16.6 10.3 64 3.7 NNE 4 6 2 3 - - 1.0
23/07:30am 16.6 16.0 10.5 67 3.2 NE 4 4 2 2 - - 1.0
23/07:00am 15.0 13.7 10.0 72 2.6 NE 7 9 4 5 - - 1.0
23/06:30am 13.4 12.1 10.0 80 1.8 NE 7 11 4 6 - - 1.0
23/06:00am 12.9 11.8 9.9 82 1.5 NE 6 9 3 5 - - 1.0
23/05:30am 13.2 12.1 10.7 85 1.3 NE 7 11 4 6 - - 1.0
23/05:00am 12.9 12.0 10.6 86 1.2 E 6 7 3 4 - - 1.0
23/04:30am 13.0 13.2 10.5 85 1.3 CALM 0 2 0 1 - - 1.0
23/04:00am 13.4 12.3 10.8 84 1.4 E 7 9 4 5 - - 1.0
23/03:30am 14.0 12.9 10.8 81 1.7 E 7 9 4 5 - - 1.0
23/03:00am 13.9 12.9 10.9 82 1.6 E 7 9 4 5 - - 1.0
23/02:30am 13.5 12.4 10.7 83 1.5 ESE 7 9 4 5 - - 1.0
23/02:00am 13.7 12.3 10.9 83 1.5 E 9 11 5 6 - - 1.0
23/01:30am 13.8 12.4 11.0 83 1.5 ESE 9 11 5 6 - - 1.0
23/01:00am 14.3 12.9 10.9 80 1.8 E 9 11 5 6 - - 1.0
23/12:30am 14.5 13.7 11.1 80 1.8 E 6 9 3 5 - - 1.0
23/12:00am 14.8 13.7 10.6 76 2.2 ESE 7 11 4 6 - - 1.0
 
Date/Time
CDT
Temp
°C
App
Temp
°C
Dew
Point
Rel
Hum
%
Delta-T
°C
Wind Press
QNH
hPa
Press
MSL
hPa
Rain
since 9 am
mm
Dir
 
Spd
km/h
Gust
km/h
Spd
kts
Gust
kts
22/11:30pm 15.2 13.8 10.8 75 2.3 ESE 9 11 5 6 - - 1.0
22/11:00pm 15.2 14.1 10.6 74 2.4 ESE 7 11 4 6 - - 1.0
22/10:30pm 15.8 14.8 11.0 73 2.6 ESE 7 11 4 6 - - 1.0
22/10:00pm 16.2 15.5 11.4 73 2.6 SE 6 9 3 5 - - 1.0
22/09:30pm 16.9 15.8 11.8 72 2.8 SE 9 13 5 7 - - 1.0
22/09:00pm 17.5 15.8 12.4 72 2.8 SE 13 19 7 10 - - 1.0
22/08:30pm 18.6 18.6 14.3 76 2.5 S 7 13 4 7 - - 1.0
22/08:00pm 19.3 20.1 14.8 75 2.6 S 4 7 2 4 - - 1.0
22/07:30pm 20.1 20.9 14.7 71 3.2 WNW 4 7 2 4 - - 1.0
22/07:00pm 20.4 19.6 14.1 67 3.7 W 11 15 6 8 - - 1.0
22/06:30pm 21.9 21.4 13.8 60 4.7 WNW 9 13 5 7 - - 1.0
22/06:00pm 22.4 20.3 12.4 53 5.7 WSW 15 26 8 14 - - 1.0
22/05:30pm 23.6 22.3 12.6 50 6.3 SW 11 19 6 10 - - 1.0
22/05:00pm 23.0 20.8 12.0 50 6.2 SW 15 24 8 13 - - 1.0
22/04:30pm 23.0 21.1 12.9 53 5.8 SW 15 24 8 13 - - 1.0
22/04:00pm 23.0 21.0 15.6 63 4.5 W 20 28 11 15 - - 1.0
22/03:30pm 24.2 23.8 16.2 61 4.9 WNW 13 20 7 11 - - 1.0
22/03:00pm 21.5 23.0 17.5 78 2.5 N 6 9 3 5 - - 1.0
22/02:30pm 21.5 21.1 15.3 68 3.7 WNW 11 15 6 8 - - 0.8
22/02:00pm 23.2 23.9 15.5 62 4.6 NW 6 11 3 6 - - 0.8
22/01:30pm 22.7 21.4 14.8 61 4.7 WNW 15 22 8 12 - - 0.8
22/01:00pm 21.9 20.7 16.2 70 3.4 NW 17 28 9 15 - - 0.8
22/12:30pm 24.1 22.6 14.2 54 5.8 NNW 15 28 8 15 - - 0.4
22/12:00pm 23.4 23.3 16.0 63 4.5 N 11 19 6 10 - - 0.2
22/11:30am 22.8 19.8 14.9 61 4.7 NNE 24 37 13 20 - - 0.2
22/11:00am 21.4 21.5 17.4 78 2.5 NE 13 20 7 11 - - 0.2
22/10:30am 21.2 20.5 15.3 69 3.5 N 13 22 7 12 - - 0.2
22/10:00am 21.4 19.6 15.5 69 3.5 NNE 19 26 10 14 - - 0.2
22/09:30am 20.6 19.4 16.0 75 2.8 NNE 17 26 9 14 - - 0.2
22/09:00am 18.7 16.5 14.4 76 2.5 NNE 19 24 10 13 - - 2.4
22/08:30am 20.1 17.4 12.8 63 4.1 NNE 19 24 10 13 - - 1.2
22/08:00am 20.2 19.3 12.7 62 4.2 NW 9 15 5 8 - - 1.2
22/07:30am 20.1 17.4 11.6 58 4.7 N 17 32 9 17 - - 1.0
22/07:00am 24.7 19.5 5.5 29 9.8 N 22 39 12 21 - - 0.2
22/06:30am 24.9 18.4 4.6 27 10.2 N 28 44 15 24 - - 0.2
22/06:00am 25.6 18.2 4.1 25 10.7 N 32 48 17 26 - - 0.2
22/05:31am 26.2 19.5 3.5 23 11.3 N 28 46 15 25 - - 0.2
22/05:30am 26.1 19.8 4.0 24 11.1 N 26 44 14 24 - - 0.2
22/05:00am 26.6 20.2 3.2 22 11.6 NNE 26 41 14 22 - - 0.2
22/04:30am 26.6 20.7 3.8 23 11.4 NNE 24 35 13 19 - - 0.2
22/04:00am 26.2 20.2 3.5 23 11.3 NNE 24 41 13 22 - - 0.2
22/03:30am 26.1 19.2 2.7 22 11.4 NNE 28 41 15 22 - - 0.2
22/03:00am 25.1 19.9 2.5 23 10.9 NE 19 28 10 15 - - 0.2
22/02:30am 24.3 19.3 3.6 26 10.2 NE 19 26 10 14 - - 0.2
22/02:00am 22.6 18.5 4.2 30 9.0 ENE 15 20 8 11 - - 0.2
22/01:30am 22.6 18.9 4.2 30 9.0 ENE 13 20 7 11 - - 0.2
22/01:00am 22.4 18.0 4.5 31 8.8 ENE 17 24 9 13 - - 0.2
22/12:30am 22.3 18.3 4.8 32 8.7 ENE 15 19 8 10 - - 0.2
22/12:00am 22.1 18.2 5.5 34 8.3 ENE 15 20 8 11 - - 0.2
 
Date/Time
CDT
Temp
°C
App
Temp
°C
Dew
Point
Rel
Hum
%
Delta-T
°C
Wind Press
QNH
hPa
Press
MSL
hPa
Rain
since 9 am
mm
Dir
 
Spd
km/h
Gust
km/h
Spd
kts
Gust
kts
21/11:30pm 22.5 18.5 5.0 32 8.7 ENE 15 22 8 12 - - 0.2
21/11:00pm 22.6 19.0 5.1 32 8.7 ENE 13 19 7 10 - - 0.2
21/10:30pm 22.5 18.5 5.0 32 8.7 E 15 20 8 11 - - 0.2
21/10:00pm 22.3 19.0 4.8 32 8.7 E 11 15 6 8 - - 0.2
21/09:30pm 22.0 19.5 5.0 33 8.4 E 7 9 4 5 - - 0.2
21/09:00pm 21.9 19.8 6.6 37 7.8 E 7 9 4 5 - - 0.2
21/08:30pm 22.1 20.5 6.3 36 8.0 E 4 6 2 3 - - 0.2
21/08:00pm 23.3 22.4 6.1 33 8.8 CALM 0 2 0 1 - - 0.2
21/07:30pm 23.8 22.1 6.1 32 9.1 W 4 6 2 3 - - 0.2
21/07:00pm 24.5 22.2 5.8 30 9.6 W 7 11 4 6 - - 0.2
21/06:30pm 24.8 22.2 6.1 30 9.6 W 9 13 5 7 - - 0.2
21/06:00pm 25.0 22.7 5.7 29 9.9 NNW 7 13 4 7 - - 0.2
21/05:30pm 24.5 21.8 5.8 30 9.6 W 9 15 5 8 - - 0.2
21/05:00pm 24.5 21.9 7.6 34 8.9 W 11 19 6 10 - - 0.2
21/04:30pm 24.2 21.3 6.5 32 9.1 W 11 15 6 8 - - 0.2
21/04:00pm 24.0 21.6 7.2 34 8.8 W 9 15 5 8 - - 0.2
21/03:30pm 24.0 21.5 6.7 33 9.0 W 9 13 5 7 - - 0.2
21/03:00pm 23.5 21.7 8.0 37 8.2 W 7 13 4 7 - - 0.2
21/02:30pm 22.4 20.1 7.4 38 7.8 WNW 9 17 5 9 - - 0.2
21/02:00pm 21.9 19.7 7.7 40 7.4 W 9 15 5 8 - - 0.2
21/01:30pm 22.5 20.5 8.6 41 7.4 WNW 9 13 5 7 - - 0.2
21/01:00pm 20.6 18.0 9.2 48 6.1 NW 13 19 7 10 - - 0.2
21/12:30pm 20.2 17.8 10.0 52 5.5 NNW 13 22 7 12 - - 0.2
21/12:00pm 19.4 17.2 9.3 52 5.3 WNW 11 19 6 10 - - 0.2
21/11:30am 19.1 16.3 8.7 51 5.4 NW 13 19 7 10 - - 0.2
21/11:00am 18.8 16.6 9.3 54 5.0 NW 11 19 6 10 - - 0.2
21/10:30am 18.4 15.8 9.5 56 4.7 WNW 13 24 7 13 - - 0.2
21/10:00am 18.3 16.4 10.4 60 4.2 WNW 11 19 6 10 - - 0.0
21/09:30am 17.4 15.4 8.8 57 4.5 WNW 9 17 5 9 - - 0.0
21/09:00am 17.4 15.3 9.8 61 4.0 WNW 11 19 6 10 - - 4.4
21/08:30am 17.3 15.3 10.2 63 3.8 NW 11 19 6 10 - - 4.4
21/08:00am 16.9 14.4 9.8 63 3.7 WNW 13 19 7 10 - - 4.4
21/07:30am 16.3 15.8 10.6 69 3.0 WNW 4 7 2 4 - - 4.4
21/07:00am 14.3 14.2 9.5 73 2.5 CALM 0 0 0 0 - - 4.4
21/06:30am 13.9 13.0 9.1 73 2.4 N 4 4 2 2 - - 4.4
21/06:00am 13.6 12.5 8.4 71 2.6 NNE 4 6 2 3 - - 4.4
21/05:30am 14.4 12.9 8.6 68 2.9 WSW 6 9 3 5 - - 4.4
21/05:00am 14.8 12.2 9.2 69 2.9 WSW 13 22 7 12 - - 4.4
21/04:30am 14.3 13.1 9.7 74 2.4 WSW 6 9 3 5 - - 4.4
21/04:00am 14.2 12.9 9.8 75 2.3 W 7 11 4 6 - - 4.4
21/03:30am 13.9 13.2 10.1 78 2.0 W 4 9 2 5 - - 4.4
21/03:00am 14.0 14.1 10.2 78 2.0 CALM 0 0 0 0 - - 4.4
21/02:30am 14.3 14.1 10.3 77 2.1 SW 2 4 1 2 - - 4.4
21/02:00am 14.7 14.1 10.5 76 2.2 S 4 9 2 5 - - 4.4
21/01:30am 15.2 14.1 10.8 75 2.3 SSW 7 15 4 8 - - 4.4
21/01:00am 15.4 14.0 10.8 74 2.4 SW 9 17 5 9 - - 4.4
21/12:30am 15.7 13.2 10.9 73 2.6 SW 15 22 8 12 - - 4.4
21/12:00am 16.1 13.6 11.1 72 2.7 SW 15 24 8 13 - - 4.4
 
Date/Time
CDT
Temp
°C
App
Temp
°C
Dew
Point
Rel
Hum
%
Delta-T
°C
Wind Press
QNH
hPa
Press
MSL
hPa
Rain
since 9 am
mm
Dir
 
Spd
km/h
Gust
km/h
Spd
kts
Gust
kts
20/11:30pm 16.3 14.7 11.5 73 2.6 SW 11 20 6 11 - - 4.4
20/11:00pm 16.3 14.4 11.7 74 2.5 SW 13 22 7 12 - - 4.4

Other Formats:

Comma delimited format used in spreadsheet applications
http://www.bom.gov.au/fwo/IDS60801/IDS60801.94808.axf

JavaScript Object Notation format (JSON) in row-major order
http://www.bom.gov.au/fwo/IDS60801/IDS60801.94808.json